Darrtown, Ohio
Current Conditions -  °F | °C
As of 7:15 AM on Friday 19 Dec 2014 (Local Time) from KI67 Reporting Station
Overcast Overcast  
Wind Chill: 28°   Ceiling: 2000
Heat Index: 28°   Visibility: 10mi
Dew Point: 23°   Wind: 3mph
Humidity: 80%   Direction: 360°N
Pressure: 30.28"   Gusts: NA
Location:  39.4851°N, 84.7501°W
Report Text: KI67 191215Z AUTO 36003KT 10SM OVC020 M02/M05 A3028 RMK AO1
Loading
Personal Weather Stations






























Interactive Weather Map New forecast layout! Learn more

10-Day Weather Forecast

Advertisements
Track Severe Weather on mobile